»·PEaware :: N88MR KTUS-KSMO

N88MR :: KTUS-KSMO

FLIGHT INFORMATION

Flight Status: Arrived
Operator: Privately registered:
United States
More flights under this callsign
Pilot: Ryan L. (28399)
Aircraft: CESSNA 510 CITATION MUSTANG
(C510)
More flights by this aircraft type
Origin: KTUS Tucson Intl
United States
Destination: KSMO Santa Monica Mun
United States
More flights between these airports :: More routes between these airports
Route: TUS8 GBN J50 KOFFA PHRED THRNE3
File this flight plan on PilotEdge
Remarks:
Altitude:
(Current/Filed)
40,000ft
Speed:
(Current/Filed)
400kts
Departed: 17-Oct-20 08:20 AM
Arrived: 17-Oct-20 09:35 AM
Distance/Time
Traveled:
394nm/1:15
Distance/Time
To Go:
Arrived

Flight Plot

Page will automatically refresh every two minutes.

Flight plan parsing failed; only flown route is shown


Map Options




Map Legend


Flown Route
Filed Route
Departure Airport
Arrival Airport
Navaid (VOR, NDB)
Fix

Horizontal Profiles

Position Reports

Time Latitude Longitude Heading Altitude Ground
Speed
17-Oct-20 08:01 32.126364 -110.944713 135 2648ft 0kts
17-Oct-20 08:02 32.126364 -110.944713 135 2648ft 0kts
17-Oct-20 08:03 32.126364 -110.944713 135 2648ft 0kts
17-Oct-20 08:04 32.126364 -110.944713 135 2648ft 0kts
17-Oct-20 08:05 32.126364 -110.944713 135 2648ft 0kts
17-Oct-20 08:06 32.126364 -110.944713 135 2648ft 0kts
17-Oct-20 08:07 32.126364 -110.944713 135 2648ft 0kts
17-Oct-20 08:08 32.126364 -110.944713 135 2648ft 0kts
17-Oct-20 08:09 32.126364 -110.944713 135 2648ft 0kts
17-Oct-20 08:11 32.126364 -110.944713 135 2648ft 0kts
17-Oct-20 08:12 32.126364 -110.944713 135 2648ft 0kts
17-Oct-20 08:13 32.126364 -110.944713 135 2648ft 0kts
17-Oct-20 08:14 32.126364 -110.944713 135 2648ft 0kts
17-Oct-20 08:15 32.126364 -110.944713 135 2648ft 0kts
17-Oct-20 08:16 32.126364 -110.944713 135 2648ft 0kts
17-Oct-20 08:17 32.126060 -110.946042 224 2648ft 13kts
17-Oct-20 08:18 32.124599 -110.947762 225 2648ft 0kts
17-Oct-20 08:19 32.124599 -110.947762 225 2648ft 0kts
17-Oct-20 08:20 32.115519 -110.938751 135 2748ft 133kts
17-Oct-20 08:21 32.076212 -110.939092 250 5170ft 233kts
17-Oct-20 08:22 32.116999 -111.003599 321 8041ft 278kts
17-Oct-20 08:23 32.153006 -111.083051 291 11208ft 278kts
17-Oct-20 08:24 32.181912 -111.167624 290 14078ft 284kts
17-Oct-20 08:25 32.211752 -111.255425 290 16480ft 294kts
17-Oct-20 08:26 32.240011 -111.339411 292 18222ft 312kts
17-Oct-20 08:26 32.267056 -111.418680 292 20116ft 316kts
17-Oct-20 08:28 32.318717 -111.527355 303 22314ft 327kts
17-Oct-20 08:28 32.361760 -111.603629 303 23694ft 335kts
17-Oct-20 08:30 32.421567 -111.709944 303 26192ft 322kts
17-Oct-20 08:30 32.463179 -111.784103 303 28311ft 308kts
17-Oct-20 08:32 32.516634 -111.879588 303 31170ft 290kts
17-Oct-20 08:32 32.556804 -111.951508 303 31412ft 336kts
17-Oct-20 08:33 32.610905 -112.048588 303 31942ft 361kts
17-Oct-20 08:34 32.666335 -112.148310 303 32916ft 365kts
17-Oct-20 08:35 32.722600 -112.249809 303 33765ft 371kts
17-Oct-20 08:36 32.779430 -112.352606 303 34526ft 376kts
17-Oct-20 08:37 32.836959 -112.456958 303 35217ft 380kts
17-Oct-20 08:38 32.895087 -112.562695 303 35841ft 384kts
17-Oct-20 08:39 32.953556 -112.669275 304 36744ft 378kts
17-Oct-20 08:40 33.020865 -112.759495 311 38687ft 349kts
17-Oct-20 08:41 33.083816 -112.842720 311 40003ft 343kts
17-Oct-20 08:42 33.151185 -112.932002 311 40006ft 372kts
17-Oct-20 08:43 33.222736 -113.027067 311 40003ft 391kts
17-Oct-20 08:44 33.296926 -113.125905 311 40002ft 403kts
17-Oct-20 08:45 33.372338 -113.226652 311 40001ft 410kts
17-Oct-20 08:46 33.448391 -113.328540 311 40000ft 413kts
17-Oct-20 08:47 33.489041 -113.455322 286 40000ft 413kts
17-Oct-20 08:48 33.520514 -113.587943 286 40000ft 414kts
17-Oct-20 08:49 33.551829 -113.720387 285 40000ft 415kts
17-Oct-20 08:50 33.583231 -113.853891 285 40000ft 415kts
17-Oct-20 08:51 33.614375 -113.986997 285 40000ft 415kts
17-Oct-20 08:52 33.645152 -114.120285 281 39748ft 420kts
17-Oct-20 08:53 33.659572 -114.260280 276 38981ft 428kts
17-Oct-20 08:54 33.673635 -114.402816 276 37906ft 431kts
17-Oct-20 08:55 33.687766 -114.547769 276 36700ft 432kts
17-Oct-20 08:56 33.701711 -114.692583 276 35493ft 432kts
17-Oct-20 08:57 33.715373 -114.836225 276 34206ft 435kts
17-Oct-20 08:58 33.728962 -114.980932 276 32714ft 437kts
17-Oct-20 08:59 33.742431 -115.126204 276 31220ft 438kts
17-Oct-20 09:00 33.756808 -115.271991 277 29720ft 439kts
17-Oct-20 09:01 33.771290 -115.415135 277 28217ft 429kts
17-Oct-20 09:02 33.785237 -115.553262 277 26792ft 401kts
17-Oct-20 09:03 33.797168 -115.672002 276 25716ft 379kts
17-Oct-20 09:04 33.809506 -115.797588 276 24522ft 375kts
17-Oct-20 09:05 33.821919 -115.920822 277 23371ft 368kts
17-Oct-20 09:06 33.834245 -116.043459 277 22367ft 365kts
17-Oct-20 09:07 33.845290 -116.164112 276 21161ft 364kts
17-Oct-20 09:08 33.854557 -116.284573 276 19645ft 354kts
17-Oct-20 09:09 33.864264 -116.400679 277 18123ft 346kts
17-Oct-20 09:10 33.874664 -116.510335 278 16054ft 318kts
17-Oct-20 09:11 33.889273 -116.608220 282 15319ft 301kts
17-Oct-20 09:12 33.906185 -116.715033 281 13737ft 306kts
17-Oct-20 09:13 33.921743 -116.813422 282 13049ft 301kts
17-Oct-20 09:14 33.937507 -116.913466 282 13038ft 307kts
17-Oct-20 09:15 33.956574 -117.010247 287 11796ft 284kts
17-Oct-20 09:16 33.978418 -117.101623 287 10342ft 290kts
17-Oct-20 09:17 34.000152 -117.192194 287 10011ft 282kts
17-Oct-20 09:18 34.021972 -117.283477 287 10007ft 284kts
17-Oct-20 09:19 34.043848 -117.375331 287 10005ft 284kts
17-Oct-20 09:20 34.065646 -117.466965 287 9999ft 282kts
17-Oct-20 09:21 34.079508 -117.556454 279 9254ft 257kts
17-Oct-20 09:22 34.088929 -117.641540 279 8215ft 254kts
17-Oct-20 09:23 34.098315 -117.727291 278 7668ft 253kts
17-Oct-20 09:24 34.107624 -117.813057 278 7268ft 260kts
17-Oct-20 09:25 34.117042 -117.900860 278 6609ft 259kts
17-Oct-20 09:26 34.126218 -117.986819 278 5714ft 258kts
17-Oct-20 09:27 34.135324 -118.072445 278 4832ft 256kts
17-Oct-20 09:28 34.144289 -118.157362 278 4330ft 252kts
17-Oct-20 09:29 34.153067 -118.241088 278 4197ft 252kts
17-Oct-20 09:30 34.129064 -118.316986 225 3730ft 267kts
17-Oct-20 09:31 34.078610 -118.376932 224 2102ft 229kts
17-Oct-20 09:32 34.039443 -118.423424 225 858ft 140kts
17-Oct-20 09:33 34.017058 -118.449873 224 180ft 87kts
17-Oct-20 09:34 34.014251 -118.452336 131 180ft 0kts

Navigation Log

Ident Type
Flight plan parsing failed, navigation log unavailable